createdAt,value
2022-12-31T00:00:05.121Z,4
2022-12-31T00:05:05.102Z,3.6
2022-12-31T00:10:05.095Z,3
2022-12-31T00:15:05.084Z,2.3
2022-12-31T00:20:05.099Z,2.5
2022-12-31T00:25:05.083Z,2.2
2022-12-31T00:30:05.188Z,2.2
2022-12-31T00:35:05.098Z,2.3
2022-12-31T00:40:05.108Z,2.1
2022-12-31T00:45:05.086Z,2.1
2022-12-31T00:50:05.087Z,2.1
2022-12-31T00:55:05.086Z,2.2
2022-12-31T01:00:05.099Z,2.2
2022-12-31T01:05:05.106Z,2.1
2022-12-31T01:10:05.096Z,2.8
2022-12-31T01:15:05.090Z,3.3
2022-12-31T01:20:05.209Z,2.9
2022-12-31T01:25:05.092Z,2.4
2022-12-31T01:30:05.084Z,2.4
2022-12-31T01:35:05.083Z,2.3
2022-12-31T01:40:05.096Z,2.3
2022-12-31T01:45:05.087Z,1.7
2022-12-31T01:50:05.080Z,1.9
2022-12-31T01:55:05.114Z,1.7
2022-12-31T02:00:05.074Z,1.7
2022-12-31T02:05:05.083Z,1.7
2022-12-31T02:10:05.082Z,1.2
2022-12-31T02:15:05.088Z,1
2022-12-31T02:20:05.088Z,1.1
2022-12-31T02:25:05.092Z,1
2022-12-31T02:30:05.077Z,1
2022-12-31T02:35:05.102Z,1.3
2022-12-31T02:40:05.085Z,1.3
2022-12-31T02:45:05.084Z,1.4
2022-12-31T02:50:05.087Z,1.3
2022-12-31T02:55:05.098Z,1.4
2022-12-31T03:00:05.078Z,1.4
2022-12-31T03:05:05.084Z,1.4
2022-12-31T03:10:05.111Z,1.2
2022-12-31T03:15:05.092Z,1.4
2022-12-31T03:20:05.104Z,1.6
2022-12-31T03:25:05.087Z,1.5
2022-12-31T03:30:05.079Z,1.5
2022-12-31T03:35:05.096Z,1.6
2022-12-31T03:40:05.086Z,1.3
2022-12-31T03:45:05.091Z,1.3
2022-12-31T03:50:05.089Z,1.6
2022-12-31T03:55:05.089Z,1.2
2022-12-31T04:00:05.080Z,1.2
2022-12-31T04:05:05.090Z,1.3
2022-12-31T04:10:05.087Z,1
2022-12-31T04:15:05.084Z,1.2
2022-12-31T04:20:05.107Z,1.2
2022-12-31T04:25:05.089Z,1
2022-12-31T04:30:05.086Z,1
2022-12-31T04:35:05.097Z,1.1
2022-12-31T04:40:06.466Z,1
2022-12-31T04:45:05.082Z,0.9
2022-12-31T04:50:05.178Z,1
2022-12-31T04:55:05.089Z,1.1
2022-12-31T05:00:05.086Z,1.1
2022-12-31T05:05:05.098Z,1
2022-12-31T05:10:05.111Z,1.1
2022-12-31T05:15:05.118Z,1
2022-12-31T05:20:05.087Z,1.1
2022-12-31T05:25:05.090Z,1.5
2022-12-31T05:30:05.091Z,1.5
2022-12-31T05:35:05.093Z,1.1
2022-12-31T05:40:05.176Z,1.1
2022-12-31T05:45:05.108Z,0.9
2022-12-31T05:50:05.097Z,1.1
2022-12-31T05:55:05.099Z,1
2022-12-31T06:00:05.090Z,1
2022-12-31T06:05:05.105Z,1.1
2022-12-31T06:10:05.106Z,1
2022-12-31T06:15:05.101Z,0.9
2022-12-31T06:20:10.610Z,1
2022-12-31T06:25:05.104Z,1
2022-12-31T06:30:05.158Z,1
2022-12-31T06:35:05.096Z,1.1
2022-12-31T06:40:05.098Z,0.9
2022-12-31T06:45:05.087Z,1
2022-12-31T06:50:05.103Z,1.1
2022-12-31T06:55:05.135Z,1.2
2022-12-31T07:00:05.149Z,1.2
2022-12-31T07:05:05.093Z,0.9
2022-12-31T07:10:05.087Z,0.9
2022-12-31T07:15:05.087Z,1.2
2022-12-31T07:20:05.103Z,1
2022-12-31T07:25:05.080Z,1.1
2022-12-31T07:30:05.081Z,1.1
2022-12-31T07:35:05.081Z,1
2022-12-31T07:40:05.083Z,1.1
2022-12-31T07:45:05.086Z,1
2022-12-31T07:50:05.093Z,0.9
2022-12-31T07:55:05.093Z,1.1
2022-12-31T08:00:05.080Z,1.1
2022-12-31T08:05:05.097Z,0.9
2022-12-31T08:10:05.079Z,1.1
2022-12-31T08:15:05.079Z,0.9
2022-12-31T08:20:05.078Z,1
2022-12-31T08:25:05.081Z,1.1
2022-12-31T08:30:05.090Z,1.1
2022-12-31T08:35:05.087Z,1
2022-12-31T08:40:05.080Z,1
2022-12-31T08:45:05.081Z,1.1
2022-12-31T08:50:05.215Z,1.1
2022-12-31T08:55:05.094Z,1
2022-12-31T09:00:05.112Z,1
2022-12-31T09:05:05.083Z,0.9
2022-12-31T09:10:05.085Z,0.9
2022-12-31T09:15:05.087Z,1
2022-12-31T09:20:05.082Z,1
2022-12-31T09:25:05.090Z,1
2022-12-31T09:30:05.091Z,1
2022-12-31T09:35:05.095Z,1.3
2022-12-31T09:40:05.082Z,1.3
2022-12-31T09:45:05.086Z,1.3
2022-12-31T09:50:05.083Z,1.3
2022-12-31T09:55:05.093Z,1.1
2022-12-31T10:00:05.088Z,1.1
2022-12-31T10:05:05.080Z,1.3
2022-12-31T10:10:05.078Z,1.2
2022-12-31T10:15:05.103Z,1
2022-12-31T10:20:05.099Z,1.2
2022-12-31T10:25:05.104Z,0.9
2022-12-31T10:30:05.097Z,0.9
2022-12-31T10:35:05.090Z,0.9
2022-12-31T10:40:05.090Z,1.2
2022-12-31T10:45:05.084Z,1.1
2022-12-31T10:50:05.080Z,1.2
2022-12-31T10:55:05.080Z,1.1
2022-12-31T11:00:05.089Z,1.1
2022-12-31T11:05:05.088Z,1.1
2022-12-31T11:10:05.092Z,1.2
2022-12-31T11:15:05.106Z,1.2
2022-12-31T11:20:05.082Z,1.2
2022-12-31T11:25:05.107Z,1.4
2022-12-31T11:30:05.081Z,1.4
2022-12-31T11:35:05.097Z,1.2
2022-12-31T11:40:05.078Z,1.1
2022-12-31T11:45:05.090Z,1.2
2022-12-31T11:50:05.078Z,1.1
2022-12-31T11:55:05.086Z,1
2022-12-31T12:00:05.095Z,1
2022-12-31T12:05:10.507Z,1.1
2022-12-31T12:10:05.081Z,1.2
2022-12-31T12:15:05.094Z,0.9
2022-12-31T12:20:05.097Z,1
2022-12-31T12:25:05.087Z,1.1
2022-12-31T12:30:05.079Z,1.1
2022-12-31T12:35:05.107Z,1
2022-12-31T12:40:05.083Z,1
2022-12-31T12:45:05.088Z,1.1
2022-12-31T12:50:05.084Z,1.2
2022-12-31T12:55:05.086Z,1.4
2022-12-31T13:00:05.094Z,1.4
2022-12-31T13:05:05.199Z,1
2022-12-31T13:10:05.082Z,1.1
2022-12-31T13:15:05.083Z,0.9
2022-12-31T13:20:05.085Z,1.1
2022-12-31T13:25:05.081Z,1.2
2022-12-31T13:30:05.080Z,1.2
2022-12-31T13:35:05.084Z,1.1
2022-12-31T13:40:05.083Z,1.2
2022-12-31T13:45:05.083Z,1.3
2022-12-31T13:50:08.334Z,1.1
2022-12-31T13:55:05.086Z,1.3
2022-12-31T14:00:05.078Z,1.3
2022-12-31T14:05:05.087Z,1.1
2022-12-31T14:10:05.081Z,1.2
2022-12-31T14:15:05.084Z,1
2022-12-31T14:20:10.102Z,1.2
2022-12-31T14:25:05.084Z,0.9
2022-12-31T14:30:05.129Z,0.9
2022-12-31T14:35:05.113Z,1.1
2022-12-31T14:40:05.080Z,0.9
2022-12-31T14:45:05.082Z,0.8
2022-12-31T14:50:05.113Z,0.9
2022-12-31T14:55:05.093Z,1
2022-12-31T15:00:05.087Z,1
2022-12-31T15:05:05.110Z,1
2022-12-31T15:10:05.081Z,1
2022-12-31T15:15:05.082Z,1.1
2022-12-31T15:20:05.105Z,1.1
2022-12-31T15:25:05.078Z,1
2022-12-31T15:30:05.086Z,1
2022-12-31T15:35:05.115Z,1.3
2022-12-31T15:40:05.092Z,1.2
2022-12-31T15:45:05.084Z,1.3
2022-12-31T15:50:05.107Z,1.3
2022-12-31T15:55:05.090Z,1.4
2022-12-31T16:00:05.085Z,1.4
2022-12-31T16:05:05.105Z,1.7
2022-12-31T16:10:05.083Z,1.2
2022-12-31T16:15:05.127Z,1.6
2022-12-31T16:20:05.103Z,1.6
2022-12-31T16:25:30.022Z,1.6
2022-12-31T16:30:05.087Z,1.6
2022-12-31T16:35:10.132Z,1.7
2022-12-31T16:40:05.090Z,1.6
2022-12-31T16:45:05.094Z,1.6
2022-12-31T16:50:05.098Z,1.8
2022-12-31T16:55:05.219Z,1.9
2022-12-31T17:00:05.085Z,1.9
2022-12-31T17:05:05.119Z,2.1
2022-12-31T17:10:05.080Z,2.5
2022-12-31T17:15:05.083Z,2.7
2022-12-31T17:20:05.102Z,2.5
2022-12-31T17:25:05.187Z,2.5
2022-12-31T17:30:05.089Z,2.5
2022-12-31T17:35:05.208Z,2.9
2022-12-31T17:40:49.082Z,2.7
2022-12-31T17:45:05.087Z,2.7
2022-12-31T17:50:05.104Z,2.9
2022-12-31T17:55:05.098Z,3.3
2022-12-31T18:00:05.078Z,3.3
2022-12-31T18:05:05.111Z,3.2
2022-12-31T18:10:05.096Z,3.2
2022-12-31T18:15:05.085Z,3.6
2022-12-31T18:20:06.270Z,3.7
2022-12-31T18:25:05.083Z,3.8
2022-12-31T18:30:06.055Z,3.8
2022-12-31T18:35:05.116Z,3.4
2022-12-31T18:40:05.080Z,3.9
2022-12-31T18:45:05.088Z,4.1
2022-12-31T18:50:05.110Z,3.8
2022-12-31T18:55:05.093Z,3.9
2022-12-31T19:00:05.085Z,3.9
2022-12-31T19:05:05.115Z,3.6
2022-12-31T19:10:05.083Z,3.8
2022-12-31T19:15:05.105Z,3.9
2022-12-31T19:20:05.096Z,3.3
2022-12-31T19:25:05.101Z,3.7
2022-12-31T19:30:05.080Z,3.7
2022-12-31T19:35:05.101Z,4.5
2022-12-31T19:40:05.088Z,3.8
2022-12-31T19:45:05.090Z,4.8
2022-12-31T19:50:05.100Z,4.3
2022-12-31T19:55:05.089Z,4.1
2022-12-31T20:00:05.082Z,4.1
2022-12-31T20:05:05.108Z,3.9
2022-12-31T20:10:05.079Z,3.8
2022-12-31T20:15:05.088Z,4.2
2022-12-31T20:20:05.191Z,3.4
2022-12-31T20:25:05.089Z,2.6
2022-12-31T20:30:05.086Z,2.6
2022-12-31T20:35:05.099Z,3.1
2022-12-31T20:40:05.141Z,3.5
2022-12-31T20:45:05.101Z,3.2
2022-12-31T20:50:12.875Z,3.5
2022-12-31T20:55:05.092Z,3.5
2022-12-31T21:00:05.077Z,3.5
2022-12-31T21:05:05.268Z,4
2022-12-31T21:10:05.085Z,3.6
2022-12-31T21:15:05.083Z,3.9
2022-12-31T21:20:05.105Z,4.2
2022-12-31T21:25:05.095Z,5
2022-12-31T21:30:20.736Z,5
2022-12-31T21:35:40.676Z,4.6
2022-12-31T21:40:05.091Z,4.4
2022-12-31T21:45:05.097Z,4.6
2022-12-31T21:50:05.144Z,5.2
2022-12-31T21:55:05.093Z,5.1
2022-12-31T22:00:32.319Z,5.1
2022-12-31T22:05:12.662Z,4.8
2022-12-31T22:10:05.089Z,4.9
2022-12-31T22:15:14.012Z,5.2
2022-12-31T22:25:05.092Z,5.4
2022-12-31T22:30:05.092Z,5.4
2022-12-31T22:35:05.105Z,5
2022-12-31T22:40:05.083Z,5.3
2022-12-31T22:45:05.083Z,5.2
2022-12-31T22:50:05.110Z,5
2022-12-31T22:55:05.103Z,5.6
2022-12-31T23:00:05.083Z,5.6
2022-12-31T23:05:15.986Z,6.2
2022-12-31T23:10:05.087Z,7.3
2022-12-31T23:15:05.089Z,6.8
2022-12-31T23:20:05.104Z,7.9
2022-12-31T23:25:05.328Z,13.5
2022-12-31T23:30:05.086Z,13.5
2022-12-31T23:35:09.774Z,23.4
2022-12-31T23:40:05.083Z,34
2022-12-31T23:45:05.085Z,41.2
2022-12-31T23:50:05.101Z,48.9
2022-12-31T23:55:05.093Z,59.1
